createdAt,value
2022-12-01T00:01:17.499Z,75.75
2022-12-01T00:03:45.288Z,75.34
2022-12-01T00:06:15.755Z,75.22
2022-12-01T00:09:05.419Z,75.45
2022-12-01T00:11:32.439Z,75.49
2022-12-01T00:14:01.546Z,75.57
2022-12-01T00:16:31.149Z,75.75
2022-12-01T00:18:58.787Z,75.30
2022-12-01T00:21:28.019Z,75.18
2022-12-01T00:23:57.861Z,75.19
2022-12-01T00:26:27.309Z,75.14
2022-12-01T00:28:56.505Z,75.30
2022-12-01T00:31:24.854Z,75.43
2022-12-01T00:33:54.248Z,75.19
2022-12-01T00:36:21.994Z,75.32
2022-12-01T00:38:52.824Z,75.19
2022-12-01T00:41:20.982Z,75.19
2022-12-01T00:43:48.492Z,75.05
2022-12-01T00:46:16.319Z,75.14
2022-12-01T00:48:43.913Z,75.06
2022-12-01T00:51:12.697Z,75.15
2022-12-01T00:53:40.189Z,75.34
2022-12-01T00:56:08.260Z,74.96
2022-12-01T00:58:35.693Z,75.67
2022-12-01T01:01:04.222Z,74.99
2022-12-01T01:03:33.913Z,75.56
2022-12-01T01:06:05.674Z,75.44
2022-12-01T01:08:34.547Z,75.30
2022-12-01T01:11:02.365Z,75.13
2022-12-01T01:13:29.952Z,75.59
2022-12-01T01:15:59.656Z,75.40
2022-12-01T01:18:27.160Z,75.74
2022-12-01T01:20:58.596Z,75.33
2022-12-01T01:23:26.788Z,75.34
2022-12-01T01:26:01.286Z,75.18
2022-12-01T01:28:28.731Z,75.53
2022-12-01T01:30:56.313Z,75.71
2022-12-01T01:33:24.051Z,75.64
2022-12-01T01:35:51.682Z,75.22
2022-12-01T01:38:19.237Z,75.56
2022-12-01T01:40:47.688Z,75.87
2022-12-01T01:43:18.785Z,75.49
2022-12-01T01:45:46.339Z,75.78
2022-12-01T01:48:14.758Z,75.32
2022-12-01T01:50:42.688Z,75.49
2022-12-01T01:53:14.585Z,75.47
2022-12-01T01:55:42.171Z,75.64
2022-12-01T01:58:12.036Z,75.79
2022-12-01T02:00:43.668Z,75.63
2022-12-01T02:03:15.911Z,75.60
2022-12-01T02:05:44.792Z,75.63
2022-12-01T02:08:13.558Z,75.42
2022-12-01T02:11:00.637Z,75.77
2022-12-01T02:13:35.291Z,75.42
2022-12-01T02:16:13.527Z,75.36
2022-12-01T02:18:51.043Z,75.61
2022-12-01T02:21:49.821Z,75.59
2022-12-01T02:24:44.527Z,75.81
2022-12-01T02:27:26.627Z,75.45
2022-12-01T02:30:09.003Z,75.65
2022-12-01T02:32:48.124Z,75.66
2022-12-01T02:35:22.643Z,75.54
2022-12-01T02:38:01.835Z,75.52
2022-12-01T02:40:34.795Z,75.08
2022-12-01T02:43:06.511Z,75.62
2022-12-01T02:45:41.790Z,75.17
2022-12-01T02:48:15.220Z,75.27
2022-12-01T02:50:45.039Z,75.17
2022-12-01T02:53:16.363Z,75.10
2022-12-01T02:55:52.477Z,75.41
2022-12-01T02:58:21.811Z,75.22
2022-12-01T03:01:02.978Z,75.30
2022-12-01T03:03:45.813Z,75.41
2022-12-01T03:06:20.383Z,75.53
2022-12-01T03:08:58.260Z,75.52
2022-12-01T03:11:36.607Z,75.68
2022-12-01T03:14:15.561Z,75.53
2022-12-01T03:16:50.734Z,75.60
2022-12-01T03:19:28.123Z,75.48
2022-12-01T03:22:02.655Z,75.42
2022-12-01T03:24:32.980Z,75.64
2022-12-01T03:27:03.049Z,75.33
2022-12-01T03:29:34.203Z,75.51
2022-12-01T03:32:05.784Z,75.55
2022-12-01T03:34:41.263Z,75.72
2022-12-01T03:37:13.965Z,75.68
2022-12-01T03:39:44.048Z,75.62
2022-12-01T03:42:17.478Z,75.71
2022-12-01T03:44:49.775Z,75.55
2022-12-01T03:47:21.518Z,75.71
2022-12-01T03:49:53.233Z,75.80
2022-12-01T03:52:31.182Z,75.69
2022-12-01T03:55:11.906Z,75.85
2022-12-01T03:57:43.987Z,75.90
2022-12-01T04:00:13.164Z,75.79
2022-12-01T04:02:41.218Z,75.58
2022-12-01T04:05:10.171Z,75.72
2022-12-01T04:07:37.973Z,75.71
2022-12-01T04:10:07.116Z,75.94
2022-12-01T04:12:34.939Z,75.80
2022-12-01T04:15:04.386Z,75.88
2022-12-01T04:17:32.623Z,75.93
2022-12-01T04:20:00.096Z,75.86
2022-12-01T04:22:29.217Z,76.15
2022-12-01T04:24:56.858Z,76.12
2022-12-01T04:27:24.419Z,76.15
2022-12-01T04:29:52.065Z,76.18
2022-12-01T04:32:19.716Z,76.14
2022-12-01T04:34:47.192Z,76.20
2022-12-01T04:37:14.781Z,76.14
2022-12-01T04:39:43.827Z,76.05
2022-12-01T04:42:11.858Z,75.98
2022-12-01T04:44:39.302Z,76.25
2022-12-01T04:47:07.576Z,75.87
2022-12-01T04:49:37.188Z,76.08
2022-12-01T04:52:05.177Z,76.26
2022-12-01T04:54:32.749Z,75.85
2022-12-01T04:57:01.549Z,75.95
2022-12-01T04:59:29.048Z,75.89
2022-12-01T05:01:56.544Z,76.07
2022-12-01T05:04:24.005Z,76.34
2022-12-01T05:06:51.443Z,76.40
2022-12-01T05:09:20.981Z,76.33
2022-12-01T05:11:48.470Z,76.03
2022-12-01T05:14:17.222Z,76.22
2022-12-01T05:16:44.766Z,76.22
2022-12-01T05:19:29.914Z,76.38
2022-12-01T05:21:57.442Z,75.98
2022-12-01T05:24:24.953Z,76.35
2022-12-01T05:26:52.511Z,76.35
2022-12-01T05:29:21.307Z,76.02
2022-12-01T05:31:48.856Z,76.18
2022-12-01T05:34:16.393Z,76.50
2022-12-01T05:36:43.798Z,76.37
2022-12-01T05:39:11.292Z,76.29
2022-12-01T05:41:38.720Z,76.29
2022-12-01T05:44:06.420Z,76.31
2022-12-01T05:46:35.195Z,76.29
2022-12-01T05:49:02.657Z,76.72
2022-12-01T05:51:30.069Z,76.24
2022-12-01T05:53:59.853Z,76.37
2022-12-01T05:56:27.516Z,76.53
2022-12-01T05:58:54.961Z,76.29
2022-12-01T06:01:22.996Z,76.44
2022-12-01T06:03:53.531Z,76.47
2022-12-01T06:06:21.397Z,76.27
2022-12-01T06:08:48.870Z,76.09
2022-12-01T06:11:17.590Z,76.20
2022-12-01T06:13:45.080Z,76.09
2022-12-01T06:16:12.655Z,75.96
2022-12-01T06:18:40.545Z,76.43
2022-12-01T06:21:09.301Z,76.17
2022-12-01T06:23:36.783Z,76.17
2022-12-01T06:26:04.675Z,76.10
2022-12-01T06:28:39.495Z,76.28
2022-12-01T06:31:07.635Z,76.29
2022-12-01T06:33:35.541Z,76.34
2022-12-01T06:36:14.799Z,76.34
2022-12-01T06:39:39.578Z,76.08
2022-12-01T06:42:44.728Z,76.53
2022-12-01T06:45:40.912Z,76.29
2022-12-01T06:48:20.430Z,75.81
2022-12-01T06:51:00.346Z,76.20
2022-12-01T06:53:39.050Z,76.11
2022-12-01T06:56:20.659Z,76.04
2022-12-01T06:59:11.873Z,76.19
2022-12-01T07:01:48.799Z,76.03
2022-12-01T07:04:17.083Z,76.37
2022-12-01T07:06:45.803Z,76.16
2022-12-01T07:09:20.088Z,76.17
2022-12-01T07:11:55.186Z,76.33
2022-12-01T07:14:27.229Z,76.00
2022-12-01T07:17:06.748Z,76.17
2022-12-01T07:19:35.931Z,76.13
2022-12-01T07:22:08.616Z,75.99
2022-12-01T07:24:39.911Z,76.10
2022-12-01T07:27:14.911Z,76.08
2022-12-01T07:29:48.654Z,75.72
2022-12-01T07:32:17.209Z,75.80
2022-12-01T07:34:46.892Z,76.00
2022-12-01T07:37:15.179Z,75.75
2022-12-01T07:39:43.459Z,75.91
2022-12-01T07:42:17.628Z,76.03
2022-12-01T07:44:46.031Z,76.43
2022-12-01T07:47:17.422Z,76.11
2022-12-01T07:49:46.539Z,76.18
2022-12-01T07:52:15.191Z,75.94
2022-12-01T07:54:46.561Z,76.06
2022-12-01T07:57:26.182Z,76.07
2022-12-01T07:59:54.977Z,75.74
2022-12-01T08:02:26.710Z,76.06
2022-12-01T08:04:59.629Z,75.76
2022-12-01T08:07:30.093Z,76.22
2022-12-01T08:10:11.679Z,76.13
2022-12-01T08:12:45.924Z,76.03
2022-12-01T08:15:14.318Z,76.10
2022-12-01T08:17:42.603Z,76.22
2022-12-01T08:20:13.041Z,76.21
2022-12-01T08:22:41.174Z,76.00
2022-12-01T08:25:10.081Z,75.85
2022-12-01T08:27:38.959Z,76.16
2022-12-01T08:30:13.382Z,75.47
2022-12-01T08:32:45.436Z,75.66
2022-12-01T08:35:14.257Z,76.17
2022-12-01T08:37:43.482Z,75.96
2022-12-01T08:40:13.833Z,75.60
2022-12-01T08:42:42.585Z,75.85
2022-12-01T08:45:14.334Z,75.81
2022-12-01T08:47:44.155Z,75.72
2022-12-01T08:50:14.236Z,75.59
2022-12-01T08:52:54.166Z,75.63
2022-12-01T08:55:24.271Z,75.54
2022-12-01T08:57:57.226Z,75.38
2022-12-01T09:00:48.009Z,75.28
2022-12-01T09:03:23.472Z,75.58
2022-12-01T09:05:52.838Z,75.95
2022-12-01T09:08:39.820Z,75.65
2022-12-01T09:11:23.963Z,75.43
2022-12-01T09:13:58.447Z,75.65
2022-12-01T09:24:14.906Z,75.25
2022-12-01T09:27:14.361Z,75.38
2022-12-01T09:32:48.020Z,75.23
2022-12-01T09:35:23.373Z,75.26
2022-12-01T09:48:21.240Z,75.22
2022-12-01T09:51:23.366Z,75.10
2022-12-01T09:53:55.228Z,75.29
2022-12-01T09:56:30.031Z,75.09
2022-12-01T09:59:02.489Z,75.15
2022-12-01T10:01:36.733Z,75.22
2022-12-01T10:04:11.983Z,75.29
2022-12-01T10:06:46.981Z,75.33
2022-12-01T10:09:43.473Z,74.77
2022-12-01T10:13:21.648Z,74.98
2022-12-01T10:35:30.850Z,75.01
2022-12-01T10:41:58.837Z,74.99
2022-12-01T10:45:02.501Z,74.61
2022-12-01T10:51:49.922Z,74.62
2022-12-01T10:58:48.872Z,75.10
2022-12-01T11:02:07.183Z,74.66
2022-12-01T11:08:26.399Z,74.74
2022-12-01T11:22:30.401Z,74.73
2022-12-01T11:25:08.486Z,74.61
2022-12-01T11:33:29.279Z,74.61
2022-12-01T11:36:00.269Z,74.46
2022-12-01T11:41:40.586Z,74.67
2022-12-01T11:48:04.327Z,74.27
2022-12-01T11:50:40.219Z,74.58
2022-12-01T12:03:42.097Z,74.17
2022-12-01T12:10:39.474Z,73.80
2022-12-01T12:22:13.941Z,74.04
2022-12-01T12:25:36.266Z,74.01
2022-12-01T12:28:55.887Z,73.93
2022-12-01T12:32:05.226Z,74.00
2022-12-01T12:34:51.195Z,73.64
2022-12-01T12:37:41.410Z,74.09
2022-12-01T12:40:41.550Z,74.04
2022-12-01T12:47:06.371Z,73.45
2022-12-01T12:49:53.371Z,73.87
2022-12-01T13:05:28.057Z,73.67
2022-12-01T13:08:18.994Z,73.76
2022-12-01T13:12:13.067Z,73.24
2022-12-01T13:15:16.185Z,73.41
2022-12-01T14:00:30.875Z,73.50
2022-12-01T14:03:49.969Z,72.93
2022-12-01T14:06:38.300Z,73.36
2022-12-01T14:10:01.501Z,73.32
2022-12-01T14:12:54.438Z,73.54
2022-12-01T14:15:32.144Z,73.21
2022-12-01T14:25:14.225Z,73.04
2022-12-01T14:35:26.023Z,73.11
2022-12-01T14:41:40.454Z,73.07
2022-12-01T14:54:16.556Z,72.97
2022-12-01T14:57:04.335Z,73.07
2022-12-01T15:13:37.536Z,73.19
2022-12-01T15:16:34.474Z,73.20
2022-12-01T15:19:04.244Z,72.79
2022-12-01T15:24:50.755Z,73.15
2022-12-01T15:28:02.917Z,73.09
2022-12-01T15:30:37.908Z,73.14
2022-12-01T15:34:46.528Z,73.05
2022-12-01T15:36:42.812Z,72.74
2022-12-01T15:40:54.195Z,72.65
2022-12-01T15:43:34.830Z,73.13
2022-12-01T15:46:35.374Z,72.99
2022-12-01T15:49:27.451Z,73.44
2022-12-01T15:52:29.112Z,73.19
2022-12-01T15:54:59.666Z,73.39
2022-12-01T15:57:28.270Z,73.08
2022-12-01T15:59:59.067Z,73.64
2022-12-01T16:02:29.753Z,73.31
2022-12-01T16:05:15.825Z,73.16
2022-12-01T16:08:12.643Z,73.32
2022-12-01T16:10:34.502Z,73.32
2022-12-01T16:13:36.856Z,73.34
2022-12-01T16:16:36.409Z,73.68
2022-12-01T16:19:22.193Z,73.66
2022-12-01T16:21:52.569Z,73.57
2022-12-01T16:24:24.671Z,73.64
2022-12-01T16:26:55.406Z,73.55
2022-12-01T16:29:25.862Z,73.46
2022-12-01T16:34:49.329Z,73.27
2022-12-01T16:37:17.591Z,73.60
2022-12-01T16:39:45.257Z,73.98
2022-12-01T16:42:15.160Z,73.51
2022-12-01T16:44:43.456Z,73.47
2022-12-01T16:47:16.260Z,73.52
2022-12-01T16:49:43.810Z,73.66
2022-12-01T16:55:02.836Z,73.62
2022-12-01T16:57:32.150Z,73.63
2022-12-01T16:59:59.766Z,73.74
2022-12-01T17:02:33.482Z,74.10
2022-12-01T17:05:04.850Z,74.03
2022-12-01T17:07:32.346Z,73.89
2022-12-01T17:10:00.362Z,73.93
2022-12-01T17:12:28.141Z,73.78
2022-12-01T17:18:32.248Z,73.72
2022-12-01T17:21:07.058Z,73.89
2022-12-01T17:24:06.031Z,73.81
2022-12-01T17:30:50.890Z,73.94
2022-12-01T17:33:45.930Z,74.03
2022-12-01T17:36:16.883Z,73.96
2022-12-01T17:38:46.493Z,74.29
2022-12-01T17:41:20.778Z,74.10
2022-12-01T17:43:48.898Z,74.10
2022-12-01T17:46:16.576Z,74.42
2022-12-01T17:48:48.447Z,73.84
2022-12-01T17:51:16.968Z,74.46
2022-12-01T17:53:45.547Z,74.52
2022-12-01T17:56:15.517Z,74.06
2022-12-01T17:58:43.818Z,74.12
2022-12-01T18:01:15.752Z,74.45
2022-12-01T18:03:45.160Z,74.28
2022-12-01T18:06:14.958Z,74.08
2022-12-01T18:08:43.682Z,74.44
2022-12-01T18:11:15.251Z,74.53
2022-12-01T18:13:45.367Z,74.37
2022-12-01T18:16:15.301Z,74.58
2022-12-01T18:18:43.116Z,74.54
2022-12-01T18:21:14.029Z,74.24
2022-12-01T18:23:41.799Z,74.50
2022-12-01T18:26:16.103Z,74.49
2022-12-01T18:28:44.079Z,74.52
2022-12-01T18:31:14.287Z,74.60
2022-12-01T18:33:44.191Z,74.54
2022-12-01T18:36:15.829Z,74.54
2022-12-01T18:38:47.071Z,74.77
2022-12-01T18:41:15.665Z,75.01
2022-12-01T18:43:43.497Z,75.00
2022-12-01T18:46:11.966Z,74.85
2022-12-01T18:48:44.286Z,75.18
2022-12-01T18:51:14.982Z,74.72
2022-12-01T18:53:42.846Z,74.83
2022-12-01T18:56:12.303Z,75.04
2022-12-01T18:58:41.139Z,74.97
2022-12-01T19:01:19.954Z,75.20
2022-12-01T19:03:47.809Z,75.15
2022-12-01T19:06:16.963Z,74.93
2022-12-01T19:08:46.497Z,75.17
2022-12-01T19:11:14.897Z,74.91
2022-12-01T19:13:42.638Z,74.91
2022-12-01T19:16:12.428Z,74.98
2022-12-01T19:18:40.414Z,75.23
2022-12-01T19:21:11.138Z,75.07
2022-12-01T19:23:40.431Z,75.00
2022-12-01T19:26:11.115Z,75.08
2022-12-01T19:28:40.343Z,74.97
2022-12-01T19:31:12.280Z,75.14
2022-12-01T19:33:40.202Z,75.14
2022-12-01T19:36:10.798Z,75.06
2022-12-01T19:38:39.988Z,75.19
2022-12-01T19:41:09.149Z,75.48
2022-12-01T19:43:37.881Z,75.34
2022-12-01T19:46:06.895Z,74.88
2022-12-01T19:48:34.853Z,75.18
2022-12-01T19:51:03.287Z,75.12
2022-12-01T19:53:33.806Z,75.32
2022-12-01T19:56:05.780Z,75.39
2022-12-01T19:58:34.893Z,75.51
2022-12-01T20:01:07.379Z,75.52
2022-12-01T20:03:36.179Z,75.46
2022-12-01T20:06:05.488Z,75.10
2022-12-01T20:08:35.885Z,75.35
2022-12-01T20:11:08.452Z,74.99
2022-12-01T20:13:39.590Z,75.32
2022-12-01T20:16:10.211Z,75.50
2022-12-01T20:18:38.515Z,75.07
2022-12-01T20:21:08.810Z,75.12
2022-12-01T20:23:37.318Z,75.29
2022-12-01T20:26:09.683Z,75.49
2022-12-01T20:28:38.978Z,75.16
2022-12-01T20:31:11.164Z,75.13
2022-12-01T20:33:40.408Z,75.39
2022-12-01T20:36:09.832Z,75.43
2022-12-01T20:38:39.097Z,75.01
2022-12-01T20:41:08.779Z,75.70
2022-12-01T20:43:36.792Z,75.51
2022-12-01T20:46:05.276Z,75.34
2022-12-01T20:48:38.128Z,75.40
2022-12-01T20:51:07.945Z,75.50
2022-12-01T20:53:36.425Z,75.51
2022-12-01T20:56:05.181Z,75.47
2022-12-01T20:58:37.761Z,75.84
2022-12-01T21:01:09.293Z,75.52
2022-12-01T21:03:41.486Z,75.39
2022-12-01T21:06:10.138Z,75.16
2022-12-01T21:08:38.803Z,75.06
2022-12-01T21:11:07.768Z,75.67
2022-12-01T21:13:39.654Z,75.34
2022-12-01T21:16:14.424Z,75.54
2022-12-01T21:18:50.395Z,75.40
2022-12-01T21:21:25.470Z,75.24
2022-12-01T21:24:11.058Z,75.24
2022-12-01T21:26:40.856Z,74.98
2022-12-01T21:29:18.950Z,75.33
2022-12-01T21:31:47.720Z,75.25
2022-12-01T21:34:19.874Z,75.61
2022-12-01T21:36:49.343Z,75.33
2022-12-01T21:39:20.689Z,75.44
2022-12-01T21:41:49.943Z,75.43
2022-12-01T21:44:20.594Z,75.33
2022-12-01T21:46:51.163Z,75.22
2022-12-01T21:49:21.642Z,75.38
2022-12-01T21:51:52.681Z,75.04
2022-12-01T21:54:22.158Z,75.62
2022-12-01T21:56:50.871Z,75.60
2022-12-01T21:59:23.880Z,75.33
2022-12-01T22:01:54.694Z,75.31
2022-12-01T22:04:24.634Z,75.52
2022-12-01T22:06:53.676Z,75.32
2022-12-01T22:09:25.948Z,75.68
2022-12-01T22:11:56.046Z,75.34
2022-12-01T22:14:30.252Z,75.45
2022-12-01T22:17:02.075Z,75.10
2022-12-01T22:19:31.850Z,75.60
2022-12-01T22:22:15.626Z,75.47
2022-12-01T22:24:45.615Z,75.67
2022-12-01T22:27:28.694Z,75.59
2022-12-01T22:30:02.900Z,75.36
2022-12-01T22:32:38.055Z,75.62
2022-12-01T22:35:23.745Z,75.55
2022-12-01T22:37:52.636Z,75.06
2022-12-01T22:40:39.702Z,75.37
2022-12-01T22:43:33.844Z,75.28
2022-12-01T22:46:23.348Z,75.49
2022-12-01T22:48:53.036Z,75.24
2022-12-01T22:51:39.197Z,75.20
2022-12-01T22:54:31.708Z,75.30
2022-12-01T22:57:34.941Z,75.64
2022-12-01T23:00:14.954Z,75.44
2022-12-01T23:02:44.882Z,75.47
2022-12-01T23:05:22.785Z,75.40
2022-12-01T23:07:51.286Z,74.93
2022-12-01T23:10:21.352Z,74.94
2022-12-01T23:12:50.595Z,75.24
2022-12-01T23:15:27.273Z,75.26
2022-12-01T23:17:56.171Z,75.19
2022-12-01T23:20:32.484Z,75.09
2022-12-01T23:23:02.199Z,75.29
2022-12-01T23:25:30.777Z,75.30
2022-12-01T23:28:01.405Z,75.28
2022-12-01T23:30:29.138Z,75.21
2022-12-01T23:33:20.559Z,75.01
2022-12-01T23:35:52.312Z,75.26
2022-12-01T23:38:24.046Z,74.88
2022-12-01T23:40:53.832Z,75.27
2022-12-01T23:43:23.762Z,75.25
2022-12-01T23:46:04.044Z,75.15
2022-12-01T23:48:38.287Z,75.45
2022-12-01T23:51:14.981Z,75.64
2022-12-01T23:53:42.588Z,75.01
2022-12-01T23:56:15.155Z,75.43
2022-12-01T23:58:44.046Z,75.51
